createdAt,value
2019-01-15T00:00:52.172Z,3.20
2019-01-15T00:03:22.199Z,3.60
2019-01-15T00:05:51.993Z,3.50
2019-01-15T00:08:21.664Z,2.73
2019-01-15T00:10:51.330Z,2.97
2019-01-15T00:13:20.938Z,3.43
2019-01-15T00:15:50.516Z,2.50
2019-01-15T00:18:20.451Z,3.17
2019-01-15T00:20:50.159Z,2.83
2019-01-15T00:23:19.855Z,2.80
2019-01-15T00:25:49.647Z,2.60
2019-01-15T00:28:19.256Z,2.30
2019-01-15T00:30:48.988Z,2.90
2019-01-15T00:33:18.780Z,2.00
2019-01-15T00:35:48.502Z,2.50
2019-01-15T00:38:18.345Z,2.20
2019-01-15T00:40:48.123Z,2.60
2019-01-15T00:43:17.799Z,2.30
2019-01-15T00:45:47.818Z,2.23
2019-01-15T00:48:17.427Z,2.70
2019-01-15T00:50:47.203Z,2.50
2019-01-15T00:53:16.826Z,3.40
2019-01-15T00:55:46.564Z,2.90
2019-01-15T00:58:16.249Z,3.10
2019-01-15T01:00:46.006Z,2.73
2019-01-15T01:03:15.575Z,3.13
2019-01-15T01:05:45.762Z,4.30
2019-01-15T01:08:15.561Z,3.07
2019-01-15T01:10:45.341Z,2.40
2019-01-15T01:13:14.931Z,2.77
2019-01-15T01:15:44.718Z,2.50
2019-01-15T01:18:14.420Z,2.90
2019-01-15T01:20:45.101Z,2.97
2019-01-15T01:23:15.196Z,2.53
2019-01-15T01:25:45.075Z,3.37
2019-01-15T01:28:14.707Z,3.37
2019-01-15T01:30:44.559Z,3.47
2019-01-15T01:33:14.461Z,3.17
2019-01-15T01:35:45.210Z,4.15
2019-01-15T01:38:14.924Z,2.87
2019-01-15T01:40:44.581Z,3.10
2019-01-15T01:43:14.478Z,2.67
2019-01-15T01:45:44.212Z,3.07
2019-01-15T01:48:13.761Z,3.43
2019-01-15T01:50:43.610Z,3.90
2019-01-15T01:53:13.255Z,3.20
2019-01-15T01:55:42.991Z,3.00
2019-01-15T01:58:13.016Z,3.33
2019-01-15T02:00:42.691Z,2.93
2019-01-15T02:03:12.386Z,3.33
2019-01-15T02:05:42.245Z,3.97
2019-01-15T02:08:11.931Z,3.87
2019-01-15T02:10:41.782Z,3.10
2019-01-15T02:13:11.386Z,3.07
2019-01-15T02:15:41.564Z,3.17
2019-01-15T02:18:11.553Z,3.10
2019-01-15T02:20:41.200Z,5.10
2019-01-15T02:23:11.119Z,2.90
2019-01-15T02:25:40.908Z,3.20
2019-01-15T02:28:10.672Z,3.23
2019-01-15T02:30:40.764Z,2.57
2019-01-15T02:33:10.868Z,3.10
2019-01-15T02:35:40.503Z,3.57
2019-01-15T02:38:10.418Z,3.73
2019-01-15T02:40:40.115Z,3.20
2019-01-15T02:43:12.352Z,3.13
2019-01-15T02:45:42.054Z,2.83
2019-01-15T02:48:12.856Z,3.23
2019-01-15T02:50:42.931Z,3.30
2019-01-15T02:54:03.170Z,3.13
2019-01-15T02:56:33.015Z,2.63
2019-01-15T02:59:09.220Z,3.03
2019-01-15T03:01:38.890Z,2.93
2019-01-15T03:04:08.645Z,2.90
2019-01-15T03:06:38.363Z,2.40
2019-01-15T03:09:08.370Z,3.00
2019-01-15T03:11:38.750Z,3.70
2019-01-15T03:14:09.487Z,2.90
2019-01-15T03:16:40.297Z,3.00
2019-01-15T03:19:11.003Z,2.70
2019-01-15T03:21:41.250Z,3.30
2019-01-15T03:24:11.327Z,2.87
2019-01-15T03:26:40.992Z,2.70
2019-01-15T03:29:10.883Z,2.80
2019-01-15T03:31:41.255Z,2.60
2019-01-15T03:34:11.132Z,3.10
2019-01-15T03:36:40.866Z,2.93
2019-01-15T03:39:10.878Z,2.87
2019-01-15T03:41:40.876Z,3.63
2019-01-15T03:44:10.873Z,3.13
2019-01-15T03:46:41.236Z,3.27
2019-01-15T03:49:11.699Z,3.00
2019-01-15T03:51:41.593Z,2.57
2019-01-15T03:54:11.500Z,3.97
2019-01-15T03:56:41.106Z,2.80
2019-01-15T03:59:11.287Z,3.23
2019-01-15T04:01:41.077Z,3.03
2019-01-15T04:04:11.793Z,3.53
2019-01-15T04:06:41.931Z,2.93
2019-01-15T04:09:12.096Z,3.67
2019-01-15T04:11:41.826Z,2.77
2019-01-15T04:14:11.529Z,2.77
2019-01-15T04:16:41.258Z,3.10
2019-01-15T04:19:11.232Z,2.73
2019-01-15T04:21:41.278Z,3.67
2019-01-15T04:24:11.097Z,2.97
2019-01-15T04:26:41.509Z,3.50
2019-01-15T04:29:11.759Z,3.77
2019-01-15T04:31:41.794Z,2.90
2019-01-15T04:34:15.228Z,2.80
2019-01-15T04:36:45.784Z,2.70
2019-01-15T04:39:15.564Z,4.37
2019-01-15T04:41:45.335Z,2.97
2019-01-15T04:44:16.001Z,3.70
2019-01-15T04:46:45.783Z,2.90
2019-01-15T04:49:17.998Z,2.83
2019-01-15T04:51:48.412Z,2.80
2019-01-15T04:54:18.129Z,3.43
2019-01-15T04:56:48.017Z,3.33
2019-01-15T04:59:19.785Z,3.00
2019-01-15T05:01:49.736Z,3.50
2019-01-15T05:04:19.765Z,3.00
2019-01-15T05:06:49.715Z,3.40
2019-01-15T05:09:20.145Z,2.90
2019-01-15T05:11:50.343Z,3.00
2019-01-15T05:14:20.621Z,3.20
2019-01-15T05:16:50.276Z,2.80
2019-01-15T05:19:20.229Z,2.70
2019-01-15T05:21:50.094Z,3.40
2019-01-15T05:24:20.240Z,2.97
2019-01-15T05:26:50.457Z,3.77
2019-01-15T05:29:23.191Z,3.47
2019-01-15T05:31:53.530Z,2.97
2019-01-15T05:34:23.710Z,2.77
2019-01-15T05:36:53.795Z,2.83
2019-01-15T05:39:23.580Z,3.43
2019-01-15T05:41:54.228Z,3.57
2019-01-15T05:44:24.308Z,3.43
2019-01-15T05:46:54.337Z,3.90
2019-01-15T05:49:24.758Z,4.33
2019-01-15T05:51:56.752Z,3.63
2019-01-15T05:54:26.909Z,3.00
2019-01-15T05:56:57.679Z,3.63
2019-01-15T05:59:30.896Z,3.30
2019-01-15T06:02:00.964Z,3.30
2019-01-15T06:04:31.113Z,4.40
2019-01-15T06:07:00.900Z,3.07
2019-01-15T06:09:31.017Z,3.70
2019-01-15T06:12:01.232Z,3.40
2019-01-15T06:14:31.306Z,3.63
2019-01-15T06:17:01.860Z,3.83
2019-01-15T06:19:32.497Z,3.73
2019-01-15T06:22:02.559Z,3.50
2019-01-15T06:24:34.177Z,3.67
2019-01-15T06:27:06.298Z,4.23
2019-01-15T06:29:36.641Z,4.97
2019-01-15T06:32:06.336Z,5.07
2019-01-15T06:34:35.950Z,4.50
2019-01-15T06:37:05.561Z,4.37
2019-01-15T06:39:35.135Z,5.60
2019-01-15T06:42:04.999Z,3.93
2019-01-15T06:44:37.304Z,4.70
2019-01-15T06:47:08.617Z,5.00
2019-01-15T06:49:38.364Z,5.17
2019-01-15T06:52:08.670Z,4.97
2019-01-15T06:54:38.341Z,5.20
2019-01-15T06:57:08.251Z,5.70
2019-01-15T06:59:46.898Z,5.23
2019-01-15T07:02:19.762Z,5.93
2019-01-15T07:04:52.940Z,4.60
2019-01-15T07:07:22.555Z,5.43
2019-01-15T07:09:52.059Z,5.73
2019-01-15T07:12:21.608Z,5.30
2019-01-15T07:14:51.158Z,5.37
2019-01-15T07:17:20.778Z,6.07
2019-01-15T07:19:50.608Z,5.50
2019-01-15T07:22:20.202Z,5.80
2019-01-15T07:24:49.734Z,6.67
2019-01-15T07:27:19.326Z,5.37
2019-01-15T07:29:48.880Z,6.23
2019-01-15T07:32:18.429Z,5.77
2019-01-15T07:34:48.141Z,4.97
2019-01-15T07:37:17.737Z,5.63
2019-01-15T07:39:47.613Z,6.50
2019-01-15T07:42:17.257Z,5.07
2019-01-15T07:44:46.968Z,6.37
2019-01-15T07:47:25.171Z,10.47
2019-01-15T07:49:54.679Z,7.00
2019-01-15T07:52:24.390Z,6.13
2019-01-15T07:54:53.842Z,6.50
2019-01-15T07:57:23.458Z,6.23
2019-01-15T07:59:53.054Z,7.73
2019-01-15T08:02:22.608Z,5.87
2019-01-15T08:04:52.245Z,6.90
2019-01-15T08:07:21.782Z,6.77
2019-01-15T08:09:51.233Z,5.30
2019-01-15T08:12:20.695Z,5.57
2019-01-15T08:14:50.185Z,7.70
2019-01-15T08:17:20.077Z,7.57
2019-01-15T08:19:49.551Z,7.93
2019-01-15T08:22:19.026Z,6.27
2019-01-15T08:24:48.516Z,5.63
2019-01-15T08:27:18.048Z,5.87
2019-01-15T08:29:47.605Z,5.60
2019-01-15T08:32:17.072Z,6.00
2019-01-15T08:34:46.578Z,6.57
2019-01-15T08:37:16.076Z,6.37
2019-01-15T08:39:45.557Z,6.43
2019-01-15T08:42:15.036Z,5.57
2019-01-15T08:44:44.655Z,6.23
2019-01-15T08:47:14.257Z,5.97
2019-01-15T08:49:43.759Z,5.20
2019-01-15T08:52:13.354Z,5.27
2019-01-15T08:54:42.847Z,6.77
2019-01-15T08:57:12.317Z,6.00
2019-01-15T08:59:41.881Z,4.90
2019-01-15T09:02:11.391Z,5.13
2019-01-15T09:04:40.927Z,5.47
2019-01-15T09:07:10.400Z,5.00
2019-01-15T09:09:39.913Z,5.93
2019-01-15T09:12:09.415Z,5.37
2019-01-15T09:14:40.038Z,4.80
2019-01-15T09:17:11.125Z,5.27
2019-01-15T09:19:40.747Z,5.23
2019-01-15T09:22:10.601Z,5.67
2019-01-15T09:24:40.146Z,4.70
2019-01-15T09:27:09.729Z,4.57
2019-01-15T09:29:39.249Z,4.93
2019-01-15T09:32:08.831Z,4.93
2019-01-15T09:34:38.452Z,5.47
2019-01-15T09:37:09.573Z,7.13
2019-01-15T09:39:39.241Z,4.80
2019-01-15T09:42:08.945Z,5.97
2019-01-15T09:44:38.679Z,5.20
2019-01-15T09:47:08.251Z,4.67
2019-01-15T09:49:37.805Z,4.97
2019-01-15T09:52:12.959Z,4.97
2019-01-15T09:54:38.594Z,4.67
2019-01-15T09:57:08.127Z,4.47
2019-01-15T09:59:37.723Z,5.13
2019-01-15T10:02:07.342Z,4.87
2019-01-15T10:04:36.863Z,5.37
2019-01-15T10:07:06.512Z,4.80
2019-01-15T10:09:36.245Z,4.70
2019-01-15T10:12:05.742Z,4.63
2019-01-15T10:14:41.222Z,5.50
2019-01-15T10:17:06.489Z,5.00
2019-01-15T10:19:36.149Z,5.10
2019-01-15T10:22:05.867Z,5.27
2019-01-15T10:24:35.785Z,5.60
2019-01-15T10:27:05.705Z,5.20
2019-01-15T10:29:35.774Z,5.27
2019-01-15T10:32:31.519Z,4.73
2019-01-15T10:35:04.497Z,4.67
2019-01-15T10:37:34.097Z,4.53
2019-01-15T10:40:05.020Z,5.13
2019-01-15T10:42:34.591Z,5.57
2019-01-15T10:45:06.268Z,4.90
2019-01-15T10:47:35.840Z,4.70
2019-01-15T10:50:11.347Z,5.13
2019-01-15T10:52:40.939Z,4.43
2019-01-15T10:55:10.548Z,4.80
2019-01-15T10:57:40.166Z,3.93
2019-01-15T11:00:13.053Z,3.83
2019-01-15T11:02:42.695Z,3.97
2019-01-15T11:05:12.582Z,3.90
2019-01-15T11:07:42.127Z,4.43
2019-01-15T11:10:14.912Z,4.37
2019-01-15T11:12:44.428Z,4.07
2019-01-15T11:15:14.059Z,4.57
2019-01-15T11:17:43.682Z,4.00
2019-01-15T11:20:16.422Z,4.63
2019-01-15T11:22:46.073Z,3.97
2019-01-15T11:25:15.666Z,4.67
2019-01-15T11:27:45.275Z,5.43
2019-01-15T11:30:15.397Z,4.27
2019-01-15T11:32:44.914Z,9.60
2019-01-15T11:35:14.582Z,3.97
2019-01-15T11:37:44.276Z,4.50
2019-01-15T11:40:15.682Z,4.43
2019-01-15T11:42:45.223Z,5.27
2019-01-15T11:45:21.161Z,3.37
2019-01-15T11:47:51.187Z,5.70
2019-01-15T11:50:23.767Z,4.33
2019-01-15T11:52:53.655Z,5.27
2019-01-15T11:55:23.246Z,4.10
2019-01-15T11:57:52.808Z,3.77
2019-01-15T12:00:26.281Z,3.50
2019-01-15T12:03:00.693Z,4.97
2019-01-15T12:05:34.778Z,4.13
2019-01-15T12:08:11.552Z,3.33
2019-01-15T12:10:59.180Z,4.20
2019-01-15T12:13:32.907Z,3.43
2019-01-15T12:16:20.004Z,4.10
2019-01-15T12:19:07.376Z,3.93
2019-01-15T12:21:47.549Z,4.13
2019-01-15T12:24:21.749Z,4.70
2019-01-15T12:26:52.965Z,4.43
2019-01-15T12:29:29.878Z,4.37
2019-01-15T12:32:01.129Z,4.77
2019-01-15T12:34:48.346Z,5.17
2019-01-15T12:37:19.542Z,4.07
2019-01-15T12:40:07.524Z,3.80
2019-01-15T12:42:55.246Z,4.03
2019-01-15T12:45:27.490Z,3.87
2019-01-15T12:48:11.106Z,3.73
2019-01-15T12:50:58.191Z,3.63
2019-01-15T12:53:29.388Z,3.57
2019-01-15T12:56:15.598Z,3.30
2019-01-15T12:58:46.776Z,3.60
2019-01-15T13:01:17.944Z,3.37
2019-01-15T13:04:07.195Z,4.10
2019-01-15T13:06:38.317Z,3.70
2019-01-15T13:09:26.293Z,3.60
2019-01-15T13:12:09.189Z,3.73
2019-01-15T13:14:58.379Z,5.50
2019-01-15T13:17:29.727Z,4.97
2019-01-15T13:20:17.302Z,4.47
2019-01-15T13:22:54.186Z,4.63
2019-01-15T13:25:31.025Z,4.43
2019-01-15T13:28:08.307Z,5.87
2019-01-15T13:30:55.543Z,5.07
2019-01-15T13:33:26.804Z,5.63
2019-01-15T13:35:58.289Z,5.33
2019-01-15T13:38:29.573Z,5.53
2019-01-15T13:41:00.838Z,5.60
2019-01-15T13:43:34.878Z,5.57
2019-01-15T13:46:09.396Z,5.80
2019-01-15T13:48:40.645Z,5.90
2019-01-15T13:51:21.252Z,5.30
2019-01-15T13:54:08.647Z,4.70
2019-01-15T13:56:42.360Z,4.77
2019-01-15T13:59:13.696Z,4.20
2019-01-15T14:01:45.026Z,4.53
2019-01-15T14:04:16.337Z,4.00
2019-01-15T14:06:59.567Z,5.83
2019-01-15T14:09:37.117Z,4.03
2019-01-15T14:12:14.272Z,4.47
2019-01-15T14:15:00.791Z,4.67
2019-01-15T14:17:32.234Z,3.50
2019-01-15T14:20:06.892Z,3.93
2019-01-15T14:22:38.139Z,4.33
2019-01-15T14:25:25.989Z,4.70
2019-01-15T14:28:02.963Z,4.00
2019-01-15T14:30:40.051Z,4.20
2019-01-15T14:33:11.208Z,4.63
2019-01-15T14:35:54.610Z,4.63
2019-01-15T14:38:42.171Z,3.67
2019-01-15T14:41:22.667Z,4.77
2019-01-15T14:43:54.005Z,4.53
2019-01-15T14:46:37.639Z,4.70
2019-01-15T14:49:08.788Z,4.50
2019-01-15T14:51:39.937Z,4.83
2019-01-15T14:54:29.401Z,5.40
2019-01-15T14:57:06.652Z,5.20
2019-01-15T14:59:43.309Z,5.03
2019-01-15T15:02:14.641Z,4.67
2019-01-15T15:04:45.924Z,4.87
2019-01-15T15:07:25.731Z,4.50
2019-01-15T15:10:03.242Z,4.90
2019-01-15T15:12:40.595Z,4.80
2019-01-15T15:15:15.066Z,4.67
2019-01-15T15:17:49.265Z,5.30
2019-01-15T15:20:20.747Z,4.47
2019-01-15T15:23:03.788Z,4.73
2019-01-15T15:25:44.123Z,4.87
2019-01-15T15:28:31.402Z,5.60
2019-01-15T15:31:02.816Z,5.23
2019-01-15T15:33:37.258Z,6.13
2019-01-15T15:36:23.803Z,5.50
2019-01-15T15:39:03.736Z,6.37
2019-01-15T15:41:46.791Z,6.47
2019-01-15T15:44:20.765Z,7.23
2019-01-15T15:47:01.122Z,7.93
2019-01-15T15:49:32.379Z,7.00
2019-01-15T15:52:12.224Z,6.43
2019-01-15T15:54:49.696Z,7.30
2019-01-15T15:57:32.910Z,7.30
2019-01-15T16:00:04.319Z,6.33
2019-01-15T16:02:52.358Z,7.27
2019-01-15T16:05:26.432Z,7.00
2019-01-15T16:07:57.822Z,6.97
2019-01-15T16:10:28.980Z,5.97
2019-01-15T16:13:00.141Z,6.57
2019-01-15T16:15:40.702Z,6.10
2019-01-15T16:18:11.983Z,6.87
2019-01-15T16:20:46.214Z,6.47
2019-01-15T16:23:20.331Z,6.27
2019-01-15T16:25:51.553Z,6.77
2019-01-15T16:28:31.876Z,6.90
2019-01-15T16:31:18.111Z,5.53
2019-01-15T16:33:55.523Z,6.03
2019-01-15T16:36:32.556Z,6.17
2019-01-15T16:39:10.668Z,6.90
2019-01-15T16:41:42.007Z,6.80
2019-01-15T16:44:25.297Z,7.13
2019-01-15T16:47:13.110Z,6.07
2019-01-15T16:49:47.338Z,6.67
2019-01-15T16:52:35.340Z,6.60
2019-01-15T16:55:13.370Z,6.70
2019-01-15T16:57:53.656Z,7.20
2019-01-15T17:00:34.066Z,6.00
2019-01-15T17:03:11.184Z,7.37
2019-01-15T17:05:58.542Z,7.20
2019-01-15T17:08:41.660Z,6.73
2019-01-15T17:11:15.974Z,6.30
2019-01-15T17:13:47.396Z,6.70
2019-01-15T17:16:24.322Z,7.13
2019-01-15T17:19:01.565Z,7.70
2019-01-15T17:21:50.997Z,6.90
2019-01-15T17:24:32.278Z,8.03
2019-01-15T17:27:09.320Z,7.90
2019-01-15T17:29:53.037Z,6.67
2019-01-15T17:32:27.208Z,7.20
2019-01-15T17:35:07.730Z,7.90
2019-01-15T17:37:45.083Z,6.70
2019-01-15T17:40:32.631Z,7.87
2019-01-15T17:43:18.993Z,6.50
2019-01-15T17:45:50.678Z,7.97
2019-01-15T17:48:30.965Z,7.40
2019-01-15T17:51:08.249Z,8.10
2019-01-15T17:53:51.090Z,9.40
2019-01-15T17:56:25.346Z,9.13
2019-01-15T17:58:57.835Z,13.28
2019-01-15T18:01:47.370Z,8.93
2019-01-15T18:04:27.986Z,8.97
2019-01-15T18:07:11.323Z,7.80
2019-01-15T18:09:42.568Z,7.83
2019-01-15T18:12:14.056Z,9.00
2019-01-15T18:14:54.448Z,7.10
2019-01-15T18:17:25.793Z,7.90
2019-01-15T18:20:13.231Z,7.40
2019-01-15T18:23:02.610Z,8.27
2019-01-15T18:25:35.546Z,7.77
2019-01-15T18:28:18.612Z,7.40
2019-01-15T18:30:56.222Z,7.10
2019-01-15T18:33:46.200Z,7.30
2019-01-15T18:36:17.611Z,7.00
2019-01-15T18:39:07.775Z,9.10
2019-01-15T18:41:45.138Z,6.77
2019-01-15T18:44:19.257Z,7.23
2019-01-15T18:46:59.503Z,7.77
2019-01-15T18:49:30.636Z,8.03
2019-01-15T18:52:01.838Z,7.97
2019-01-15T18:54:33.068Z,7.67
2019-01-15T18:57:13.406Z,7.03
2019-01-15T18:59:44.566Z,7.90
2019-01-15T19:02:30.708Z,7.47
2019-01-15T19:05:01.843Z,7.70
2019-01-15T19:07:48.031Z,7.97
2019-01-15T19:10:22.063Z,9.27
2019-01-15T19:13:05.227Z,7.07
2019-01-15T19:15:55.193Z,7.03
2019-01-15T19:18:28.620Z,7.57
2019-01-15T19:21:11.758Z,5.83
2019-01-15T19:23:45.617Z,7.37
2019-01-15T19:26:16.809Z,7.10
2019-01-15T19:28:50.942Z,6.20
2019-01-15T19:31:22.088Z,6.03
2019-01-15T19:33:58.916Z,6.17
2019-01-15T19:36:30.191Z,5.83
2019-01-15T19:39:05.222Z,6.37
2019-01-15T19:41:42.276Z,6.10
2019-01-15T19:44:29.552Z,8.63
2019-01-15T19:47:10.675Z,6.53
2019-01-15T19:49:51.212Z,6.33
2019-01-15T19:52:31.492Z,6.00
2019-01-15T19:55:02.643Z,5.77
2019-01-15T19:57:33.768Z,5.40
2019-01-15T20:00:09.262Z,7.37
2019-01-15T20:02:52.660Z,5.27
2019-01-15T20:05:26.687Z,6.30
2019-01-15T20:07:57.827Z,5.80
2019-01-15T20:10:29.196Z,5.93
2019-01-15T20:13:18.368Z,5.33
2019-01-15T20:15:52.302Z,4.63
2019-01-15T20:18:26.134Z,5.67
2019-01-15T20:20:57.384Z,4.63
2019-01-15T20:23:43.726Z,4.60
2019-01-15T20:26:14.940Z,3.57
2019-01-15T20:29:02.455Z,3.97
2019-01-15T20:31:42.458Z,3.13
2019-01-15T20:34:13.767Z,2.97
2019-01-15T20:36:54.120Z,2.90
2019-01-15T20:39:31.124Z,3.07
2019-01-15T20:42:20.619Z,2.80
2019-01-15T20:45:08.160Z,2.83
2019-01-15T20:47:45.414Z,3.13
2019-01-15T20:50:25.715Z,3.23
2019-01-15T20:53:13.188Z,3.33
2019-01-15T20:55:44.612Z,3.40
2019-01-15T20:58:32.526Z,3.37
2019-01-15T21:01:15.443Z,3.00
2019-01-15T21:03:58.593Z,3.37
2019-01-15T21:06:32.524Z,2.97
2019-01-15T21:09:12.951Z,3.10
2019-01-15T21:12:02.302Z,2.90
2019-01-15T21:14:51.864Z,3.40
2019-01-15T21:17:32.704Z,4.10
2019-01-15T21:20:08.577Z,4.23
2019-01-15T21:22:48.710Z,4.10
2019-01-15T21:25:19.853Z,4.77
2019-01-15T21:27:53.529Z,4.87
2019-01-15T21:30:41.495Z,5.27
2019-01-15T21:33:16.180Z,5.10
2019-01-15T21:35:53.142Z,4.87
2019-01-15T21:38:27.096Z,5.50
2019-01-15T21:41:14.451Z,5.33
2019-01-15T21:43:48.039Z,5.70
2019-01-15T21:46:19.168Z,5.17
2019-01-15T21:48:52.809Z,6.87
2019-01-15T21:51:29.890Z,5.60
2019-01-15T21:54:01.057Z,5.53
2019-01-15T21:56:32.288Z,6.40
2019-01-15T21:59:03.542Z,5.70
2019-01-15T22:01:40.663Z,6.60
2019-01-15T22:04:17.262Z,7.33
2019-01-15T22:06:54.306Z,6.30
2019-01-15T22:09:31.043Z,7.40
2019-01-15T22:12:02.212Z,7.53
2019-01-15T22:14:50.050Z,7.00
2019-01-15T22:17:21.184Z,6.43
2019-01-15T22:19:55.001Z,6.80
2019-01-15T22:22:44.394Z,7.77
2019-01-15T22:25:21.239Z,6.60
2019-01-15T22:28:07.306Z,6.27
2019-01-15T22:30:38.453Z,6.47
2019-01-15T22:33:25.782Z,7.40
2019-01-15T22:36:02.884Z,8.40
2019-01-15T22:38:39.730Z,7.40
2019-01-15T22:41:23.192Z,8.27
2019-01-15T22:44:11.134Z,7.53
2019-01-15T22:46:45.173Z,7.40
2019-01-15T22:49:16.299Z,7.37
2019-01-15T22:52:05.509Z,7.47
2019-01-15T22:54:36.627Z,5.87
2019-01-15T22:57:26.153Z,6.87
2019-01-15T23:00:03.222Z,8.33
2019-01-15T23:02:34.422Z,6.80
2019-01-15T23:05:05.558Z,7.13
2019-01-15T23:07:42.601Z,7.17
2019-01-15T23:10:29.884Z,8.43
2019-01-15T23:13:01.148Z,7.43
2019-01-15T23:15:37.788Z,8.67
2019-01-15T23:18:08.958Z,7.77
2019-01-15T23:20:40.080Z,8.17
2019-01-15T23:23:27.614Z,7.07
2019-01-15T23:26:01.480Z,6.93
2019-01-15T23:28:35.076Z,7.50
2019-01-15T23:31:12.748Z,7.07
2019-01-15T23:33:49.704Z,7.40
2019-01-15T23:36:26.675Z,7.63
2019-01-15T23:39:14.132Z,7.83
2019-01-15T23:41:53.837Z,7.30
2019-01-15T23:44:41.079Z,8.07
2019-01-15T23:47:28.721Z,7.13
2019-01-15T23:50:05.602Z,6.77
2019-01-15T23:52:36.751Z,8.93
2019-01-15T23:55:07.998Z,7.43
2019-01-15T23:57:47.939Z,6.80
